Time;durP1;ratioP1;P1;durP2;ratioP2;P2;SDS_P1;SDS_P2;PMS_P1;PMS_P2;Temp;Humidity;BMP_temperature;BMP_pressure;BME280_temperature;BME280_humidity;BME280_pressure;Samples;Min_cycle;Max_cycle;Signal;HPM_P1;HPM_P2
2021/09/06 00:01:09;;;;;;;17.92;9.23;;;;;;;13.87;91.08;97543.31;5061681;28;20056;-69
2021/09/06 00:03:35;;;;;;;15.60;9.50;;;;;;;13.92;90.98;97484.47;4998704;28;20058;-70
2021/09/06 00:06:03;;;;;;;15.00;8.63;;;;;;;13.78;90.66;97462.88;5000112;28;20136;-70
2021/09/06 00:08:29;;;;;;;14.57;9.30;;;;;;;14.59;89.80;97583.56;5003473;28;20054;-69
2021/09/06 00:11:10;;;;;;;12.52;8.75;;;;;;;14.53;90.68;97579.50;5003401;28;20050;-68
2021/09/06 00:13:38;;;;;;;15.48;9.45;;;;;;;14.61;89.64;97578.38;5003633;28;20140;-69
2021/09/06 00:16:05;;;;;;;14.25;9.57;;;;;;;14.59;89.63;97575.22;5003117;28;20070;-69
2021/09/06 00:18:32;;;;;;;12.20;9.15;;;;;;;14.33;89.66;97534.31;5001901;28;20181;-69
2021/09/06 00:21:01;;;;;;;16.58;9.57;;;;;;;14.63;89.89;97576.03;5002941;28;20071;-69
2021/09/06 00:23:29;;;;;;;15.00;8.38;;;;;;;14.62;91.69;97591.16;5003480;28;20056;-68
2021/09/06 00:25:56;;;;;;;11.95;8.48;;;;;;;14.65;92.03;97577.22;5001682;28;20573;-67
2021/09/06 00:28:23;;;;;;;13.48;9.70;;;;;;;14.69;91.81;97580.06;5003539;28;20058;-69
2021/09/06 00:30:49;;;;;;;13.75;8.45;;;;;;;14.73;91.54;97576.13;5003947;28;20057;-69
2021/09/06 00:33:18;;;;;;;14.90;8.93;;;;;;;14.72;90.74;97573.72;5002920;28;20497;-67
2021/09/06 00:35:47;;;;;;;15.02;9.18;;;;;;;14.67;91.04;97572.09;5003491;28;20056;-69
2021/09/06 00:38:16;;;;;;;13.45;9.30;;;;;;;14.52;90.97;97541.66;5001560;28;20058;-69
2021/09/06 00:40:44;;;;;;;13.25;8.25;;;;;;;14.70;91.28;97573.31;5003443;28;20054;-69
2021/09/06 00:43:11;;;;;;;13.85;9.80;;;;;;;14.73;90.38;97576.13;5001360;28;20062;-70
2021/09/06 00:45:39;;;;;;;12.73;8.20;;;;;;;14.70;90.67;97576.09;5001438;28;20054;-69
2021/09/06 00:48:07;;;;;;;13.45;8.77;;;;;;;14.69;91.45;97585.66;5002871;28;20080;-70
2021/09/06 00:50:36;;;;;;;12.13;8.55;;;;;;;14.28;91.28;97526.31;5001768;28;20084;-70
2021/09/06 00:53:03;;;;;;;14.50;8.82;;;;;;;14.33;91.15;97533.50;5002967;28;20126;-68
2021/09/06 00:55:30;;;;;;;14.90;8.93;;;;;;;14.55;91.02;97547.28;5003144;28;20326;-69
2021/09/06 00:57:57;;;;;;;11.73;8.27;;;;;;;14.65;91.37;97557.72;5001341;28;20058;-68
2021/09/06 01:00:24;;;;;;;14.43;8.80;;;;;;;14.72;91.34;97573.72;5008916;28;20050;-68
2021/09/06 01:02:51;;;;;;;15.52;9.32;;;;;;;14.90;90.86;97591.44;5104586;28;20091;-69
2021/09/06 01:05:18;;;;;;;15.18;9.25;;;;;;;14.89;90.87;97589.84;5106576;28;20502;-69
2021/09/06 01:07:44;;;;;;;14.75;8.52;;;;;;;14.90;90.71;97592.25;5104843;28;20055;-69
2021/09/06 01:10:13;;;;;;;13.95;8.65;;;;;;;14.92;91.40;97580.69;5104724;28;20091;-68
2021/09/06 01:12:41;;;;;;;12.50;8.35;;;;;;;14.48;91.57;97518.53;4399834;28;20004302;-69
2021/09/06 01:15:09;;;;;;;13.43;8.88;;;;;;;14.91;91.80;97593.00;5105630;28;20077;-70
2021/09/06 01:17:37;;;;;;;15.38;8.85;;;;;;;14.97;91.99;97588.69;5105767;27;20060;-68
2021/09/06 01:20:06;;;;;;;14.18;9.20;;;;;;;15.07;90.83;97597.16;5105474;28;20063;-72
2021/09/06 01:22:33;;;;;;;15.60;8.57;;;;;;;14.62;90.76;97535.41;5103925;28;20048;-70
2021/09/06 01:24:59;;;;;;;12.70;8.18;;;;;;;14.66;90.75;97527.84;5105646;28;20573;-69
2021/09/06 01:27:26;;;;;;;11.82;8.60;;;;;;;14.40;90.15;97489.78;5105947;28;20141;-69
2021/09/06 01:29:53;;;;;;;13.95;9.02;;;;;;;15.04;91.26;97599.91;5105499;28;20168;-69
2021/09/06 01:32:20;;;;;;;13.25;8.35;;;;;;;14.70;91.17;97531.50;5105156;28;20059;-69
2021/09/06 01:34:47;;;;;;;11.30;8.30;;;;;;;14.99;91.40;97591.91;5103986;28;20059;-69
2021/09/06 01:37:13;;;;;;;13.13;9.32;;;;;;;15.05;91.70;97593.13;5105201;28;20051;-69
2021/09/06 01:39:40;;;;;;;14.43;8.88;;;;;;;15.08;92.17;97598.75;5105500;28;20094;-69
2021/09/06 01:42:07;;;;;;;13.20;9.15;;;;;;;14.78;91.42;97550.66;5104079;28;20055;-69
2021/09/06 01:44:34;;;;;;;12.60;8.13;;;;;;;14.59;90.73;97513.88;5105596;28;20090;-70
2021/09/06 01:47:01;;;;;;;17.83;9.20;;;;;;;15.26;89.31;97593.31;5103769;28;20055;-69
2021/09/06 01:49:27;;;;;;;11.48;8.48;;;;;;;15.31;90.04;97604.13;5104820;28;20059;-69
2021/09/06 01:51:54;;;;;;;13.10;9.07;;;;;;;15.31;89.60;97595.75;5104674;28;20494;-69
2021/09/06 01:54:21;;;;;;;14.18;9.30;;;;;;;15.45;88.56;97595.06;5104824;28;20056;-69
2021/09/06 01:56:47;;;;;;;14.73;9.38;;;;;;;15.50;89.11;97598.31;5103482;28;20055;-69
2021/09/06 01:59:14;;;;;;;14.95;9.35;;;;;;;14.96;88.69;97511.75;5105150;28;20055;-69
2021/09/06 02:01:41;;;;;;;12.32;8.70;;;;;;;15.51;88.92;97591.53;5042948;28;20060;-70
2021/09/06 02:04:08;;;;;;;14.80;9.82;;;;;;;15.43;88.83;97592.66;5000563;28;20134;-69
2021/09/06 02:06:35;;;;;;;14.95;8.90;;;;;;;15.41;89.67;97600.66;5001412;28;20085;-69
2021/09/06 02:09:01;;;;;;;16.15;9.27;;;;;;;15.15;89.91;97553.38;5001764;28;20504;-69
2021/09/06 02:11:28;;;;;;;13.38;9.38;;;;;;;15.36;90.35;97598.19;5001968;28;20057;-69
2021/09/06 02:13:55;;;;;;;16.17;11.48;;;;;;;15.29;89.48;97575.78;5000142;28;20052;-69
2021/09/06 02:16:22;;;;;;;13.30;9.23;;;;;;;15.43;89.85;97592.66;4999979;28;20054;-69
2021/09/06 02:18:48;;;;;;;16.95;9.38;;;;;;;15.33;89.74;97581.41;5000297;28;20584;-70
2021/09/06 02:21:15;;;;;;;14.18;8.38;;;;;;;15.34;90.12;97586.59;5001886;28;20061;-68
2021/09/06 02:23:42;;;;;;;12.65;8.85;;;;;;;15.41;90.45;97600.66;5000269;28;20050;-69
2021/09/06 02:26:09;;;;;;;13.65;9.45;;;;;;;15.36;91.16;97589.81;5001627;28;20045;-68
2021/09/06 02:28:36;;;;;;;11.82;8.57;;;;;;;15.09;90.91;97543.75;5000848;28;20054;-69
2021/09/06 02:31:02;;;;;;;16.45;8.80;;;;;;;14.94;90.64;97522.50;4999862;28;20060;-69
2021/09/06 02:33:29;;;;;;;15.05;10.20;;;;;;;14.86;91.34;97506.91;5001629;28;20114;-69
2021/09/06 02:35:56;;;;;;;24.00;13.25;;;;;;;15.32;91.59;97591.75;5001283;28;20049;-69
2021/09/06 02:38:23;;;;;;;15.40;10.00;;;;;;;15.01;92.89;97564.41;5001042;28;20060;-69
2021/09/06 02:40:49;;;;;;;19.67;10.10;;;;;;;15.27;92.36;97597.69;5001452;28;20056;-69
2021/09/06 02:43:16;;;;;;;13.23;9.70;;;;;;;15.25;92.55;97596.50;5001290;28;20062;-69
2021/09/06 02:45:43;;;;;;;22.90;12.63;;;;;;;15.27;91.97;97594.91;5001075;28;20141;-69
2021/09/06 02:48:10;;;;;;;15.63;9.85;;;;;;;15.20;92.66;97592.06;5000898;28;20334;-69
2021/09/06 02:50:37;;;;;;;15.35;10.32;;;;;;;14.82;94.14;97559.06;5000998;28;20496;-69
2021/09/06 02:53:03;;;;;;;13.57;9.18;;;;;;;14.34;93.98;97473.78;5001030;28;20068;-70
2021/09/06 02:55:30;;;;;;;16.15;10.18;;;;;;;15.01;94.93;97592.31;4999690;28;20061;-69
2021/09/06 02:57:56;;;;;;;14.65;9.82;;;;;;;15.14;92.97;97579.69;4999112;28;20061;-69
2021/09/06 03:00:25;;;;;;;12.32;9.38;;;;;;;15.24;92.64;97601.25;5004798;28;20507;-69
2021/09/06 03:02:52;;;;;;;13.48;9.45;;;;;;;14.78;93.40;97549.84;5103569;28;20066;-69
2021/09/06 03:05:19;;;;;;;12.77;9.30;;;;;;;15.21;93.73;97602.03;5102727;28;20051;-68
2021/09/06 03:07:46;;;;;;;15.73;10.50;;;;;;;14.89;93.10;97557.13;5102640;28;20048;-69
2021/09/06 03:10:13;;;;;;;14.10;9.38;;;;;;;14.93;93.77;97571.13;5102102;28;20056;-68
2021/09/06 03:12:40;;;;;;;12.80;9.05;;;;;;;15.18;92.89;97586.88;5102359;28;20207;-68
2021/09/06 03:15:07;;;;;;;13.88;9.43;;;;;;;14.51;92.41;97481.53;5103307;28;20518;-69
2021/09/06 03:17:34;;;;;;;13.85;8.88;;;;;;;14.70;92.71;97521.13;5103714;28;20059;-69
2021/09/06 03:20:01;;;;;;;16.98;9.68;;;;;;;15.19;91.58;97577.31;5102470;28;20532;-70
2021/09/06 03:22:28;;;;;;;18.30;9.98;;;;;;;15.24;91.71;97601.25;5103941;28;20054;-69
2021/09/06 03:24:55;;;;;;;15.05;10.10;;;;;;;14.91;93.07;97562.34;5103745;28;20051;-69
2021/09/06 03:27:22;;;;;;;17.23;10.48;;;;;;;15.03;95.07;97613.06;5102056;28;20502;-69
2021/09/06 03:29:48;;;;;;;14.18;10.07;;;;;;;14.45;96.71;97569.47;5103792;28;20056;-69
2021/09/06 03:32:15;;;;;;;33.05;14.60;;;;;;;14.76;96.34;97616.41;5103781;28;20047;-68
2021/09/06 03:34:42;;;;;;;20.92;11.13;;;;;;;14.44;99.46;97620.84;5102112;28;20047;-68
2021/09/06 03:37:08;;;;;;;13.38;10.82;;;;;;;14.36;100.00;97627.50;5103759;28;20051;-68
2021/09/06 03:39:35;;;;;;;23.65;13.27;;;;;;;10.61;100.00;97020.78;5104215;28;20197;-69
2021/09/06 03:42:02;;;;;;;32.05;16.98;;;;;;;14.31;99.81;97597.19;5107010;28;20055;-69
2021/09/06 03:44:29;;;;;;;23.52;12.63;;;;;;;14.58;99.10;97632.13;5107700;28;20055;-69
2021/09/06 03:46:56;;;;;;;25.77;14.02;;;;;;;13.97;98.47;97537.06;5107785;28;20159;-69
2021/09/06 03:49:22;;;;;;;27.92;14.88;;;;;;;14.53;99.60;97643.63;5107123;28;20051;-70
2021/09/06 03:51:49;;;;;;;34.28;15.70;;;;;;;14.14;98.77;97569.88;5106119;28;20055;-69
2021/09/06 03:54:17;;;;;;;23.10;13.13;;;;;;;14.72;98.30;97640.66;5107583;28;20516;-69
2021/09/06 03:56:43;;;;;;;21.40;12.18;;;;;;;14.84;98.64;97646.75;5106246;28;20043;-70
2021/09/06 03:59:10;;;;;;;18.17;11.48;;;;;;;14.87;97.32;97645.19;5105659;28;20053;-69
2021/09/06 04:01:37;;;;;;;16.23;10.40;;;;;;;15.01;96.47;97653.69;5052743;28;20053;-68
2021/09/06 04:04:04;;;;;;;19.05;10.65;;;;;;;14.95;96.42;97632.94;5003957;28;20061;-68
2021/09/06 04:06:31;;;;;;;14.48;9.85;;;;;;;15.13;95.49;97650.63;5003502;28;20058;-69
2021/09/06 04:08:58;;;;;;;16.13;9.82;;;;;;;15.17;94.69;97640.28;5003683;28;20046;-69
2021/09/06 04:11:24;;;;;;;19.77;9.77;;;;;;;14.80;94.15;97586.53;5003519;28;20045;-69
2021/09/06 04:13:51;;;;;;;16.58;10.25;;;;;;;15.21;94.48;97652.28;5003933;28;20526;-69
2021/09/06 04:16:18;;;;;;;15.82;10.93;;;;;;;14.94;94.08;97597.81;5003272;28;20436;-69
2021/09/06 04:18:45;;;;;;;14.63;10.02;;;;;;;14.79;93.40;97562.63;5001864;28;20148;-69
2021/09/06 04:21:11;;;;;;;16.23;10.10;;;;;;;15.02;93.87;97610.66;5003107;28;20516;-69
2021/09/06 04:23:39;;;;;;;14.82;10.13;;;;;;;15.32;93.23;97635.63;5001509;28;20057;-70
2021/09/06 04:26:06;;;;;;;13.95;9.90;;;;;;;15.05;92.50;97587.56;5003224;28;20049;-70
2021/09/06 04:28:32;;;;;;;17.33;10.23;;;;;;;14.97;93.67;97608.22;5002958;28;20145;-69
2021/09/06 04:30:59;;;;;;;13.43;9.60;;;;;;;13.73;93.19;97398.34;5001579;28;20046;-68
2021/09/06 04:33:26;;;;;;;14.25;9.77;;;;;;;15.52;92.27;97662.97;5003086;28;20616;-69
2021/09/06 04:35:53;;;;;;;19.52;9.85;;;;;;;15.28;92.26;97638.41;5002900;28;20084;-69
2021/09/06 04:38:20;;;;;;;14.70;10.20;;;;;;;15.07;93.10;97607.50;5002919;28;20504;-68
2021/09/06 04:40:46;;;;;;;14.15;9.88;;;;;;;14.79;91.92;97552.28;5002951;28;20065;-69
2021/09/06 04:43:14;;;;;;;16.05;9.88;;;;;;;15.65;91.57;97661.44;5003035;28;20057;-69
2021/09/06 04:45:41;;;;;;;15.20;9.57;;;;;;;15.73;90.13;97649.13;5002870;28;20050;-70
2021/09/06 04:48:07;;;;;;;18.00;11.30;;;;;;;15.61;89.64;97632.69;5003375;28;20130;-69
2021/09/06 04:50:34;;;;;;;18.58;12.35;;;;;;;15.97;88.19;97662.44;5003134;28;21178;-70
2021/09/06 04:53:01;;;;;;;15.52;11.85;;;;;;;16.24;87.27;97680.56;5002928;28;20056;-70
2021/09/06 04:55:28;;;;;;;16.33;10.25;;;;;;;16.27;86.60;97679.78;5003159;28;20072;-69
2021/09/06 04:57:54;;;;;;;19.58;9.60;;;;;;;16.29;85.61;97669.03;5002668;28;20235;-69
2021/09/06 05:00:22;;;;;;;15.20;9.07;;;;;;;16.51;85.33;97675.53;5003070;28;20050;-70
2021/09/06 05:02:49;;;;;;;17.02;10.15;;;;;;;16.36;84.42;97624.28;4981702;28;20058;-69
2021/09/06 05:05:16;;;;;;;15.05;8.35;;;;;;;16.90;82.32;97675.66;4983761;28;20169;-69
2021/09/06 05:07:43;;;;;;;13.05;8.90;;;;;;;16.94;81.87;97679.25;4983252;28;20437;-69
2021/09/06 05:10:10;;;;;;;14.77;9.32;;;;;;;16.99;82.04;97674.09;4983895;28;20057;-68
2021/09/06 05:12:37;;;;;;;18.73;9.82;;;;;;;16.82;81.73;97623.66;4983191;28;20058;-68
2021/09/06 05:15:04;;;;;;;21.48;10.73;;;;;;;17.23;81.20;97672.53;4982784;28;20265;-69
2021/09/06 05:17:31;;;;;;;21.42;10.20;;;;;;;17.25;80.06;97670.09;4982887;28;20135;-69
2021/09/06 05:19:58;;;;;;;17.90;10.13;;;;;;;17.27;80.50;97679.72;4982989;28;20606;-69
2021/09/06 05:22:24;;;;;;;18.63;10.55;;;;;;;17.16;80.71;97690.09;4982652;28;20054;-69
2021/09/06 05:24:54;;;;;;;18.70;11.27;;;;;;;17.26;81.31;97682.91;4982983;28;20177;-68
2021/09/06 05:27:21;;;;;;;24.20;12.88;;;;;;;17.15;80.63;97651.31;4982806;28;20057;-68
2021/09/06 05:29:48;;;;;;;17.30;11.02;;;;;;;17.57;79.77;97687.75;4983181;28;20159;-68
2021/09/06 05:32:15;;;;;;;16.20;10.18;;;;;;;17.58;78.20;97666.94;4982475;28;20509;-70
2021/09/06 05:34:42;;;;;;;14.00;9.75;;;;;;;17.76;77.66;97685.34;4982451;28;20054;-66
2021/09/06 05:37:08;;;;;;;18.60;11.05;;;;;;;17.64;77.42;97654.16;4982883;28;20435;-68
2021/09/06 05:39:35;;;;;;;17.23;10.48;;;;;;;17.48;77.26;97628.53;4983360;28;20487;-68
2021/09/06 05:42:03;;;;;;;16.88;10.65;;;;;;;16.19;80.35;97429.34;4989428;28;20870;-67
2021/09/06 05:44:30;;;;;;;17.92;10.07;;;;;;;17.41;77.81;97590.09;4996140;28;20054;-66
2021/09/06 05:46:57;;;;;;;15.68;9.68;;;;;;;15.42;75.64;97297.94;4998857;28;20440;-67
2021/09/06 05:49:23;;;;;;;17.02;10.13;;;;;;;18.18;75.85;97695.69;5001307;28;20050;-67
2021/09/06 05:51:50;;;;;;;17.75;9.88;;;;;;;18.31;75.52;97699.66;4995325;28;20056;-62
2021/09/06 05:54:17;;;;;;;27.90;11.60;;;;;;;16.56;74.22;97415.84;4982002;28;20510;-64
2021/09/06 05:56:44;;;;;;;22.25;11.90;;;;;;;18.48;74.35;97703.66;4991259;28;20089;-60
2021/09/06 05:59:11;;;;;;;17.88;10.25;;;;;;;18.57;72.33;97673.97;4982291;28;20054;-62
2021/09/06 06:01:38;;;;;;;14.45;8.50;;;;;;;18.08;71.62;97596.38;5004154;28;20050;-64
2021/09/06 06:04:05;;;;;;;20.85;9.65;;;;;;;18.80;71.47;97676.25;4980944;28;20116;-66
2021/09/06 06:06:31;;;;;;;15.48;9.98;;;;;;;18.98;70.89;97676.97;4980906;28;20562;-67
2021/09/06 06:08:58;;;;;;;25.83;10.77;;;;;;;19.46;69.77;97709.56;4982075;28;20500;-62
2021/09/06 06:11:25;;;;;;;19.50;9.90;;;;;;;18.51;67.61;97507.22;4980282;28;20057;-62
2021/09/06 06:13:51;;;;;;;18.25;10.02;;;;;;;19.86;66.74;97670.69;4982393;28;20074;-66
2021/09/06 06:16:18;;;;;;;23.55;10.60;;;;;;;20.01;66.96;97691.84;5073015;28;20054;-62
2021/09/06 06:18:45;;;;;;;21.70;11.30;;;;;;;20.27;66.52;97708.09;5081523;28;20064;-66
2021/09/06 06:21:12;;;;;;;12.40;8.73;;;;;;;20.55;66.09;97714.19;4983827;28;20054;-70
2021/09/06 06:23:38;;;;;;;12.55;8.98;;;;;;;20.36;65.99;97711.22;4979985;28;20076;-66
2021/09/06 06:26:05;;;;;;;15.38;9.23;;;;;;;20.53;65.49;97715.84;4981908;28;20050;-65
2021/09/06 06:28:32;;;;;;;12.45;8.43;;;;;;;20.56;64.68;97703.75;4981271;28;20959;-63
2021/09/06 06:30:58;;;;;;;11.25;8.38;;;;;;;20.62;62.43;97688.78;4987492;28;20054;-63
2021/09/06 06:33:29;;;;;;;11.90;8.73;;;;;;;21.00;62.00;97728.97;4985669;28;20053;-69
2021/09/06 06:36:01;;;;;;;12.32;9.27;;;;;;;21.13;60.71;97721.56;4999249;28;20383;-63
2021/09/06 06:38:29;;;;;;;12.55;8.77;;;;;;;21.23;59.46;97709.34;4982888;28;20080;-63
2021/09/06 06:40:56;;;;;;;15.80;8.48;;;;;;;21.37;58.15;97723.22;4981914;28;20054;-62
2021/09/06 06:43:23;;;;;;;15.07;8.52;;;;;;;20.01;57.87;97531.53;4980888;28;20069;-64
2021/09/06 06:45:50;;;;;;;15.38;9.38;;;;;;;21.70;56.70;97721.53;4999636;28;20189;-62
2021/09/06 06:48:17;;;;;;;12.88;8.80;;;;;;;21.50;55.63;97698.09;5000594;28;20640;-66
2021/09/06 06:50:43;;;;;;;12.65;8.30;;;;;;;20.51;54.01;97507.16;4990224;28;20054;-65
2021/09/06 06:53:10;;;;;;;14.85;9.05;;;;;;;21.97;53.71;97737.19;4980923;28;20066;-67
2021/09/06 06:55:40;;;;;;;9.02;7.18;;;;;;;21.05;54.31;97668.53;4988366;28;20118;-68
2021/09/06 06:58:07;;;;;;;11.80;8.07;;;;;;;21.35;56.00;97734.13;5001516;28;20506;-69
2021/09/06 07:00:34;;;;;;;9.75;8.18;;;;;;;21.22;54.76;97735.94;5001214;28;20060;-67
2021/09/06 07:03:01;;;;;;;15.93;8.85;;;;;;;20.64;55.72;97674.28;5000823;28;20058;-69
2021/09/06 07:05:28;;;;;;;9.82;7.03;;;;;;;20.86;51.50;97655.91;4997362;28;20046;-66
2021/09/06 07:07:55;;;;;;;9.68;7.47;;;;;;;21.20;51.27;97732.72;4997924;28;20053;-66
2021/09/06 07:10:22;;;;;;;11.50;7.20;;;;;;;20.19;54.51;97724.25;5033170;28;20046;-67
2021/09/06 07:12:49;;;;;;;14.68;7.60;;;;;;;19.78;54.95;97636.22;4998589;28;20062;-66
2021/09/06 07:15:16;;;;;;;10.82;8.23;;;;;;;21.06;53.95;97721.66;4990594;28;20525;-65
2021/09/06 07:17:42;;;;;;;12.77;7.85;;;;;;;19.80;52.62;97459.47;4984165;28;20062;-64
2021/09/06 07:20:10;;;;;;;10.85;7.05;;;;;;;21.39;51.14;97728.44;4990377;28;20480;-63
2021/09/06 07:22:36;;;;;;;11.63;7.65;;;;;;;21.49;50.88;97739.56;5000237;28;20154;-64
2021/09/06 07:25:04;;;;;;;7.80;6.75;;;;;;;21.89;48.80;97651.09;4984683;28;20054;-64
2021/09/06 07:27:32;;;;;;;10.23;7.97;;;;;;;21.96;47.79;97602.19;4996968;28;20102;-67
2021/09/06 07:29:58;;;;;;;12.95;7.40;;;;;;;23.09;47.15;97742.78;5003040;28;20046;-65
2021/09/06 07:32:25;;;;;;;8.45;7.20;;;;;;;22.82;46.79;97741.31;5001871;28;20095;-69
2021/09/06 07:34:52;;;;;;;18.20;11.30;;;;;;;22.61;48.02;97741.72;4993768;28;20532;-64
2021/09/06 07:37:19;;;;;;;21.35;12.05;;;;;;;23.15;46.39;97737.41;4994296;28;20054;-62
2021/09/06 07:39:47;;;;;;;9.77;7.00;;;;;;;22.54;45.97;97713.66;4999490;28;20551;-64
2021/09/06 07:42:14;;;;;;;16.25;7.88;;;;;;;22.48;47.52;97750.81;4993511;28;20045;-62
2021/09/06 07:44:41;;;;;;;16.15;8.55;;;;;;;21.78;45.81;97644.84;4998250;28;20421;-61
2021/09/06 07:47:08;;;;;;;9.27;7.45;;;;;;;22.59;45.61;97721.63;4991401;28;20051;-63
2021/09/06 07:49:35;;;;;;;21.42;14.35;;;;;;;22.15;45.83;97692.56;4995485;28;20050;-66
2021/09/06 07:52:02;;;;;;;10.15;7.40;;;;;;;21.81;45.37;97725.81;5002364;28;20061;-65
2021/09/06 07:54:29;;;;;;;10.70;8.13;;;;;;;22.08;46.14;97726.53;5000930;28;20046;-62
2021/09/06 07:57:00;;;;;;;11.90;8.15;;;;;;;21.75;45.54;97735.16;4999426;28;20424;-62
2021/09/06 07:59:26;;;;;;;7.63;6.30;;;;;;;21.36;46.94;97749.81;5054671;28;20690;-64
2021/09/06 08:01:53;;;;;;;8.15;6.43;;;;;;;21.21;48.35;97751.25;5018068;28;20141;-64
2021/09/06 08:04:20;;;;;;;10.95;7.53;;;;;;;21.16;48.18;97723.53;5003544;28;20058;-69
2021/09/06 08:06:47;;;;;;;8.50;6.45;;;;;;;20.97;46.54;97673.47;4999206;28;20054;-64
2021/09/06 08:09:14;;;;;;;11.38;7.07;;;;;;;21.31;48.90;97750.28;4993284;28;20054;-65
2021/09/06 08:11:45;;;;;;;10.43;6.88;;;;;;;21.80;46.49;97757.25;5002095;28;20436;-62
2021/09/06 08:14:12;;;;;;;8.93;5.88;;;;;;;22.37;45.15;97743.75;5001782;28;20084;-64
2021/09/06 08:16:39;;;;;;;16.10;8.57;;;;;;;22.76;45.41;97754.38;5002999;28;20065;-62
2021/09/06 08:19:06;;;;;;;7.78;6.15;;;;;;;21.99;43.97;97641.66;4990947;28;20054;-62
2021/09/06 08:21:33;;;;;;;7.22;5.90;;;;;;;21.43;45.19;97659.50;5000410;28;20058;-62
2021/09/06 08:24:01;;;;;;;11.77;7.50;;;;;;;21.95;46.21;97756.59;5016316;28;20049;-61
2021/09/06 08:26:28;;;;;;;8.52;6.13;;;;;;;21.40;45.12;97730.84;4987853;28;20046;-60
2021/09/06 08:28:55;;;;;;;14.73;9.23;;;;;;;22.21;45.40;97758.56;4996181;28;20054;-60
2021/09/06 08:31:21;;;;;;;12.90;7.90;;;;;;;22.03;45.46;97718.59;4991317;28;20077;-65
2021/09/06 08:33:48;;;;;;;8.52;6.70;;;;;;;21.08;44.41;97493.81;4990258;28;22127;-59
2021/09/06 08:36:15;;;;;;;9.65;7.38;;;;;;;21.54;44.39;97640.41;4995078;28;20068;-63
2021/09/06 08:38:42;;;;;;;16.85;10.90;;;;;;;22.36;45.19;97754.28;5001837;28;20045;-63
2021/09/06 08:41:09;;;;;;;9.20;7.07;;;;;;;21.47;47.57;97725.09;4994102;28;20149;-63
2021/09/06 08:43:36;;;;;;;15.25;6.88;;;;;;;20.88;46.30;97625.31;4992699;28;20583;-63
2021/09/06 08:46:03;;;;;;;14.00;8.20;;;;;;;22.17;46.08;97752.19;4991715;28;20050;-67
2021/09/06 08:48:30;;;;;;;10.65;7.40;;;;;;;22.10;45.60;97712.78;4984586;28;20073;-62
2021/09/06 08:50:57;;;;;;;10.93;7.30;;;;;;;22.13;47.10;97757.09;4984305;28;20077;-63
2021/09/06 08:53:24;;;;;;;9.07;7.13;;;;;;;22.20;44.96;97683.59;4983607;28;20133;-65
2021/09/06 08:55:53;;;;;;;10.70;7.20;;;;;;;22.48;45.42;97743.59;4992656;28;20050;-67
2021/09/06 08:58:32;;;;;;;17.83;10.45;;;;;;;22.29;45.17;97685.84;5000733;28;20493;-62
2021/09/06 09:01:00;;;;;;;14.32;8.82;;;;;;;22.76;44.74;97743.06;4993636;28;20060;-64
2021/09/06 09:03:26;;;;;;;12.63;9.50;;;;;;;21.84;45.33;97598.00;4988687;28;20062;-62
2021/09/06 09:06:06;;;;;;;12.27;8.65;;;;;;;22.55;45.39;97720.88;5000456;28;20069;-67
2021/09/06 09:08:33;;;;;;;8.98;6.68;;;;;;;22.75;43.77;97685.75;4999201;28;20489;-64
2021/09/06 09:11:03;;;;;;;9.40;6.90;;;;;;;23.42;43.29;97735.22;5054851;28;20558;-64
2021/09/06 09:13:32;;;;;;;9.85;6.50;;;;;;;22.77;42.75;97592.09;5022135;28;20058;-65
2021/09/06 09:16:00;;;;;;;10.80;8.27;;;;;;;22.91;43.04;97699.16;5001396;28;20050;-65
2021/09/06 09:18:36;;;;;;;9.30;7.43;;;;;;;23.32;43.01;97741.91;4995333;28;20046;-64
2021/09/06 09:21:06;;;;;;;11.90;7.85;;;;;;;22.93;44.76;97719.31;4982483;28;20138;-65
2021/09/06 09:23:45;;;;;;;17.17;11.05;;;;;;;23.02;44.13;97757.06;4982969;28;20435;-69
2021/09/06 09:26:13;;;;;;;10.40;7.03;;;;;;;22.25;43.66;97561.72;4984812;28;20057;-66
2021/09/06 09:28:42;;;;;;;7.88;6.35;;;;;;;22.24;44.23;97695.59;4979895;28;20051;-68
2021/09/06 09:31:13;;;;;;;12.38;7.47;;;;;;;21.98;45.56;97726.72;5013496;28;20054;-65
2021/09/06 09:33:54;;;;;;;11.77;7.57;;;;;;;22.33;45.95;97755.16;5011017;28;20122;-68
2021/09/06 09:36:35;;;;;;;10.52;7.30;;;;;;;22.61;44.48;97741.72;4984433;28;20741;-70
2021/09/06 09:39:05;;;;;;;10.88;6.50;;;;;;;22.53;44.37;97700.72;4999043;28;20111;-67
2021/09/06 09:41:31;;;;;;;10.35;7.00;;;;;;;22.98;45.11;97741.41;5001494;28;20137;-68
2021/09/06 09:44:22;;;;;;;9.20;6.97;;;;;;;22.21;45.08;97673.88;5000531;28;20076;-66
2021/09/06 09:46:55;;;;;;;11.93;8.38;;;;;;;22.52;44.71;97693.50;5000301;28;20695;-67
2021/09/06 09:49:23;;;;;;;12.02;7.95;;;;;;;21.00;44.46;97483.88;5002185;28;20065;-68
2021/09/06 09:51:50;;;;;;;10.57;6.40;;;;;;;22.54;43.69;97741.88;5000027;28;20078;-66
2021/09/06 09:54:17;;;;;;;9.88;6.93;;;;;;;22.56;43.65;97736.63;5002366;28;20053;-68
2021/09/06 09:56:46;;;;;;;11.18;7.70;;;;;;;21.53;43.52;97542.94;5000158;28;20056;-68
2021/09/06 09:59:14;;;;;;;11.15;7.60;;;;;;;22.36;43.52;97719.59;5001577;28;20343;-67
2021/09/06 10:02:03;;;;;;;8.80;5.68;;;;;;;20.43;44.96;97466.25;5004850;28;20079;-68
2021/09/06 10:04:34;;;;;;;8.48;5.50;;;;;;;22.06;44.69;97740.28;5094351;27;20442;-65
2021/09/06 10:07:03;;;;;;;12.90;9.75;;;;;;;22.37;44.17;97747.41;5081840;28;20480;-65
2021/09/06 10:09:42;;;;;;;6.60;4.55;;;;;;;21.37;43.22;97737.31;5083967;28;20052;-66
2021/09/06 10:12:11;;;;;;;8.70;5.55;;;;;;;21.45;42.93;97682.41;5084212;28;20078;-64
2021/09/06 10:14:52;;;;;;;6.82;5.43;;;;;;;22.13;42.57;97745.03;5084172;28;20129;-65
2021/09/06 10:17:33;;;;;;;5.63;4.05;;;;;;;21.63;43.26;97702.69;5083876;28;20103;-66
2021/09/06 10:20:03;;;;;;;14.32;9.25;;;;;;;22.39;43.05;97730.84;5083753;28;20232;-66
2021/09/06 10:22:31;;;;;;;13.35;8.52;;;;;;;21.69;40.52;97596.63;5083202;28;20135;-65
2021/09/06 10:25:01;;;;;;;9.63;7.30;;;;;;;22.49;40.49;97752.41;5083847;28;20075;-66
2021/09/06 10:27:29;;;;;;;10.23;6.88;;;;;;;22.59;40.67;97744.22;5083321;28;20150;-66
2021/09/06 10:30:00;;;;;;;8.38;5.85;;;;;;;22.49;39.27;97667.69;5083782;28;20125;-65
2021/09/06 10:32:46;;;;;;;9.48;5.90;;;;;;;22.75;39.55;97738.63;5083694;28;20074;-66
2021/09/06 10:35:21;;;;;;;7.20;5.70;;;;;;;23.05;39.56;97761.84;5084253;28;20135;-67
2021/09/06 10:38:12;;;;;;;9.98;6.00;;;;;;;22.88;39.46;97748.06;5007762;28;20059;-67
2021/09/06 10:40:42;;;;;;;7.82;5.68;;;;;;;20.66;38.60;97429.72;4970350;28;20050;-66
2021/09/06 10:43:13;;;;;;;9.60;6.80;;;;;;;22.62;39.30;97744.13;4980785;28;20077;-68
2021/09/06 10:45:41;;;;;;;7.03;6.00;;;;;;;21.97;39.95;97692.06;4980635;28;20069;-67
2021/09/06 10:48:08;;;;;;;8.52;5.18;;;;;;;22.02;40.55;97821.38;4980953;28;20609;-68
2021/09/06 10:50:37;;;;;;;4.07;3.20;;;;;;;22.31;39.20;97751.94;4981232;28;20653;-68
2021/09/06 10:53:04;;;;;;;8.75;5.95;;;;;;;22.45;39.10;97751.69;4979614;28;20054;-68
2021/09/06 10:55:31;;;;;;;8.43;5.57;;;;;;;20.77;38.77;97466.94;4976928;28;20070;-70
2021/09/06 10:58:00;;;;;;;8.45;5.95;;;;;;;21.69;38.26;97582.53;4968660;28;20051;-64
2021/09/06 11:00:26;;;;;;;6.53;5.90;;;;;;;22.27;39.37;97768.13;4977677;28;20428;-68
2021/09/06 11:02:53;;;;;;;9.63;6.75;;;;;;;22.12;37.93;97659.56;4992567;28;20040;-66
2021/09/06 11:05:23;;;;;;;7.18;5.53;;;;;;;22.37;39.51;97760.69;5062797;28;20057;-69
2021/09/06 11:07:51;;;;;;;21.23;11.57;;;;;;;21.98;40.21;97707.78;4979226;28;20061;-70
2021/09/06 11:10:20;;;;;;;6.38;5.75;;;;;;;22.51;39.58;97748.38;4967810;28;20057;-74
2021/09/06 11:12:54;;;;;;;10.48;6.80;;;;;;;22.64;40.11;97746.50;4979734;28;20058;-70
2021/09/06 11:15:30;;;;;;;11.40;7.00;;;;;;;22.49;40.11;97701.56;4977383;28;20054;-72
2021/09/06 11:18:00;;;;;;;8.50;5.40;;;;;;;22.85;38.55;97746.91;4973074;28;20061;-66
2021/09/06 11:20:29;;;;;;;6.78;4.78;;;;;;;22.83;38.38;97732.41;5058312;28;20051;-67
2021/09/06 11:23:03;;;;;;;8.82;6.00;;;;;;;22.75;39.87;97738.63;5082079;28;20478;-75
2021/09/06 11:25:37;;;;;;;6.78;5.57;;;;;;;22.43;38.64;97742.84;5097603;28;20074;-74
2021/09/06 11:28:11;;;;;;;7.40;5.63;;;;;;;21.67;39.61;97649.84;5080623;28;20046;-68